Time;durP1;ratioP1;P1;durP2;ratioP2;P2;SDS_P1;SDS_P2;PMS_P1;PMS_P2;Temp;Humidity;BMP_temperature;BMP_pressure;BME280_temperature;BME280_humidity;BME280_pressure;Samples;Min_cycle;Max_cycle;Signal;HPM_P1;HPM_P2
2022/03/17 00:01:49;;;;;;;;;9.00;7.50;;;;;-146.03;100.00;60875.16;5015823;28;45468;-81
2022/03/17 00:04:15;;;;;;;;;11.00;10.00;;;;;-146.03;100.00;60875.16;5016133;28;46458;-82
2022/03/17 00:06:41;;;;;;;;;8.50;7.50;;;;;-146.03;100.00;60875.16;5016375;28;46946;-82
2022/03/17 00:09:07;;;;;;;;;8.75;8.75;;;;;-146.03;100.00;60875.16;5016182;28;45378;-82
2022/03/17 00:11:33;;;;;;;;;7.75;7.75;;;;;-146.03;100.00;60875.16;5016118;28;45384;-81
2022/03/17 00:13:58;;;;;;;;;9.75;9.75;;;;;-146.03;100.00;60875.16;5016586;28;46254;-82
2022/03/17 00:16:24;;;;;;;;;9.00;9.00;;;;;-146.03;100.00;60875.16;5013404;28;45757;-82
2022/03/17 00:18:50;;;;;;;;;12.25;7.50;;;;;-146.03;100.00;60875.16;4991768;28;45581;-82
2022/03/17 00:21:15;;;;;;;;;9.00;8.00;;;;;-146.03;100.00;60875.16;5015359;28;45848;-81
2022/03/17 00:23:41;;;;;;;;;10.00;8.75;;;;;-146.03;100.00;60875.16;5015584;28;45540;-81
2022/03/17 00:26:06;;;;;;;;;11.75;9.75;;;;;-146.03;100.00;60875.16;4996081;28;46415;-82
2022/03/17 00:28:31;;;;;;;;;10.25;10.25;;;;;-146.03;100.00;60875.16;4996997;28;45506;-81
2022/03/17 00:30:57;;;;;;;;;9.00;9.00;;;;;-146.03;100.00;60875.16;5014604;28;45564;-82
2022/03/17 00:33:22;;;;;;;;;10.50;9.00;;;;;-146.03;100.00;60875.16;5014588;28;45443;-81
2022/03/17 00:35:47;;;;;;;;;14.75;11.25;;;;;-146.03;100.00;60875.16;5015132;28;53648;-81
2022/03/17 00:38:17;;;;;;;;;12.00;10.25;;;;;-146.03;100.00;60875.16;5016285;28;45764;-81
2022/03/17 00:40:45;;;;;;;;;14.00;12.75;;;;;-146.03;100.00;60875.16;5016298;28;45347;-82
2022/03/17 00:43:12;;;;;;;;;14.00;12.25;;;;;-146.03;100.00;60875.16;5014720;28;46099;-81
2022/03/17 00:45:39;;;;;;;;;12.00;12.00;;;;;-146.03;100.00;60875.16;5010847;28;47307;-80
2022/03/17 00:48:05;;;;;;;;;16.75;15.00;;;;;-146.03;100.00;60875.16;5015203;28;45889;-83
2022/03/17 00:50:31;;;;;;;;;14.00;14.00;;;;;-146.03;100.00;60875.16;5013427;28;45486;-80
2022/03/17 00:52:57;;;;;;;;;13.75;13.75;;;;;-146.03;100.00;60875.16;5013613;28;45310;-79
2022/03/17 00:55:22;;;;;;;;;17.00;17.00;;;;;-146.03;100.00;60875.16;5013229;28;46024;-80
2022/03/17 00:57:48;;;;;;;;;16.75;14.50;;;;;-146.03;100.00;60875.16;4985103;28;45352;-80
2022/03/17 01:00:15;;;;;;;;;17.25;16.00;;;;;-146.03;100.00;60875.16;5014820;28;45671;-81
2022/03/17 01:02:42;;;;;;;;;18.50;17.50;;;;;-146.03;100.00;60875.16;5011852;28;45466;-82
2022/03/17 01:05:09;;;;;;;;;19.00;18.00;;;;;-146.03;100.00;60875.16;5015947;28;45542;-81
2022/03/17 01:07:37;;;;;;;;;19.75;18.25;;;;;-146.03;100.00;60875.16;5011809;28;45482;-81
2022/03/17 01:10:04;;;;;;;;;22.00;20.25;;;;;-146.03;100.00;60875.16;5012419;28;45237;-81
2022/03/17 01:12:30;;;;;;;;;19.75;18.00;;;;;-146.03;100.00;60875.16;5013879;28;45348;-81
2022/03/17 01:14:55;;;;;;;;;19.50;17.75;;;;;-146.03;100.00;60875.16;5013610;28;48512;-81
2022/03/17 01:17:20;;;;;;;;;23.00;21.25;;;;;-146.03;100.00;60875.16;5015067;28;45315;-80
2022/03/17 01:19:46;;;;;;;;;25.25;20.50;;;;;-146.03;100.00;60875.16;5014127;28;47365;-81
2022/03/17 01:22:11;;;;;;;;;24.75;20.00;;;;;-146.03;100.00;60875.16;5014848;28;46358;-81
2022/03/17 01:24:36;;;;;;;;;19.00;17.75;;;;;-146.03;100.00;60875.16;5015010;28;46190;-81
2022/03/17 01:27:02;;;;;;;;;21.00;21.00;;;;;-146.03;100.00;60875.16;5015464;28;45411;-81
2022/03/17 01:29:29;;;;;;;;;25.25;21.75;;;;;-146.03;100.00;60875.16;5015089;28;45511;-81
2022/03/17 01:31:54;;;;;;;;;17.00;16.75;;;;;-146.03;100.00;60875.16;5016349;28;45677;-80
2022/03/17 01:34:20;;;;;;;;;20.25;18.00;;;;;-146.03;100.00;60875.16;5011069;28;45369;-81
2022/03/17 01:36:45;;;;;;;;;18.25;18.00;;;;;-146.03;100.00;60875.16;5014836;28;46042;-81
2022/03/17 01:39:10;;;;;;;;;22.50;20.25;;;;;-146.03;100.00;60875.16;5015222;28;45536;-82
2022/03/17 01:41:36;;;;;;;;;21.75;20.00;;;;;-146.03;100.00;60875.16;5014940;28;45410;-81
2022/03/17 01:44:02;;;;;;;;;22.75;21.00;;;;;-146.03;100.00;60875.16;5013759;28;45407;-81
2022/03/17 01:46:27;;;;;;;;;23.00;18.75;;;;;-146.03;100.00;60875.16;5015048;28;45800;-80
2022/03/17 01:48:53;;;;;;;;;18.50;18.00;;;;;-146.03;100.00;60875.16;5015117;28;45638;-80
2022/03/17 01:51:18;;;;;;;;;22.25;21.50;;;;;-146.03;100.00;60875.16;5014804;28;46146;-81
2022/03/17 01:53:44;;;;;;;;;19.25;18.25;;;;;-146.03;100.00;60875.16;5015089;28;50960;-81
2022/03/17 01:56:10;;;;;;;;;26.50;21.50;;;;;-146.03;100.00;60875.16;5011248;28;45702;-80
2022/03/17 01:58:35;;;;;;;;;22.50;22.25;;;;;-146.03;100.00;60875.16;5014360;28;45553;-81
2022/03/17 02:01:01;;;;;;;;;24.25;23.50;;;;;-146.03;100.00;60875.16;5012453;28;45509;-81
2022/03/17 02:03:27;;;;;;;;;18.50;17.25;;;;;-146.03;100.00;60875.16;5014388;28;45508;-80
2022/03/17 02:05:54;;;;;;;;;22.50;17.50;;;;;-146.03;100.00;60875.16;5012491;28;45550;-81
2022/03/17 02:08:19;;;;;;;;;20.25;20.25;;;;;-146.03;100.00;60875.16;5015372;28;45890;-81
2022/03/17 02:13:29;;;;;;;;;27.00;25.25;;;;;-146.03;100.00;60875.16;5012472;28;45780;-82
2022/03/17 02:15:55;;;;;;;;;26.25;19.50;;;;;-146.03;100.00;60875.16;5014360;28;45378;-82
2022/03/17 02:18:21;;;;;;;;;23.25;22.25;;;;;-146.03;100.00;60875.16;5014579;28;45406;-82
2022/03/17 02:20:47;;;;;;;;;23.50;20.50;;;;;-146.03;100.00;60875.16;5014555;28;45496;-82
2022/03/17 02:26:03;;;;;;;;;25.25;22.25;;;;;-146.03;100.00;60875.16;5014161;28;46809;-81
2022/03/17 02:28:31;;;;;;;;;18.50;17.50;;;;;-146.03;100.00;60875.16;5014284;28;45488;-82
2022/03/17 02:30:57;;;;;;;;;20.50;20.50;;;;;-146.03;100.00;60875.16;5014023;28;45573;-82
2022/03/17 02:33:23;;;;;;;;;27.00;21.50;;;;;-146.03;100.00;60875.16;5012580;28;45584;-82
2022/03/17 02:35:49;;;;;;;;;17.75;16.00;;;;;-146.03;100.00;60875.16;4996356;28;45863;-82
2022/03/17 02:38:16;;;;;;;;;18.75;16.00;;;;;-146.03;100.00;60875.16;5015585;28;45426;-81
2022/03/17 02:40:44;;;;;;;;;19.25;19.25;;;;;-146.03;100.00;60875.16;5014664;28;45620;-81
2022/03/17 02:43:11;;;;;;;;;22.00;20.25;;;;;-146.03;100.00;60875.16;5013634;28;45427;-82
2022/03/17 02:45:37;;;;;;;;;16.00;16.00;;;;;-146.03;100.00;60875.16;5013897;28;45525;-82
2022/03/17 02:48:04;;;;;;;;;18.00;17.25;;;;;-146.03;100.00;60875.16;5014068;28;45603;-81
2022/03/17 02:50:30;;;;;;;;;19.00;18.75;;;;;-146.03;100.00;60875.16;5014447;28;45292;-82
2022/03/17 02:52:57;;;;;;;;;17.00;17.00;;;;;-146.03;100.00;60875.16;5010055;28;46247;-82
2022/03/17 02:55:23;;;;;;;;;18.50;15.25;;;;;-146.03;100.00;60875.16;5013483;28;45307;-81
2022/03/17 02:57:49;;;;;;;;;15.50;15.00;;;;;-146.03;100.00;60875.16;5014129;28;45491;-81
2022/03/17 03:00:15;;;;;;;;;17.50;15.75;;;;;-146.03;100.00;60875.16;5014126;28;45584;-81
2022/03/17 03:02:42;;;;;;;;;18.00;18.00;;;;;-146.03;100.00;60875.16;5013800;28;45710;-81
2022/03/17 03:05:09;;;;;;;;;19.25;16.00;;;;;-146.03;100.00;60875.16;5014519;28;45354;-81
2022/03/17 03:07:35;;;;;;;;;15.50;15.50;;;;;-146.03;100.00;60875.16;5010765;28;45337;-81
2022/03/17 03:10:00;;;;;;;;;17.50;17.00;;;;;-146.03;100.00;60875.16;5013474;28;45445;-81
2022/03/17 03:12:26;;;;;;;;;18.50;18.50;;;;;-146.03;100.00;60875.16;5012646;28;45561;-80
2022/03/17 03:14:51;;;;;;;;;17.00;14.75;;;;;-146.03;100.00;60875.16;5013751;28;45386;-81
2022/03/17 03:17:17;;;;;;;;;16.25;15.75;;;;;-146.03;100.00;60875.16;5014406;28;45532;-80
2022/03/17 03:19:43;;;;;;;;;16.75;14.00;;;;;-146.03;100.00;60875.16;5013957;28;45461;-80
2022/03/17 03:22:08;;;;;;;;;20.00;16.00;;;;;-146.03;100.00;60875.16;5013240;28;45899;-80
2022/03/17 03:24:36;;;;;;;;;17.00;16.75;;;;;-146.03;100.00;60875.16;5012928;28;45516;-81
2022/03/17 03:27:01;;;;;;;;;12.50;10.50;;;;;-146.03;100.00;60875.16;5013478;28;45491;-81
2022/03/17 03:29:27;;;;;;;;;18.00;15.75;;;;;-146.03;100.00;60875.16;5013834;28;45354;-81
2022/03/17 03:31:54;;;;;;;;;19.25;16.75;;;;;-146.03;100.00;60875.16;5014105;28;45550;-81
2022/03/17 03:34:20;;;;;;;;;15.50;15.00;;;;;-146.03;100.00;60875.16;5009468;28;45533;-80
2022/03/17 03:39:31;;;;;;;;;21.00;15.00;;;;;-146.03;100.00;60875.16;5001996;28;45571;-81
2022/03/17 03:41:57;;;;;;;;;18.00;15.25;;;;;-146.03;100.00;60875.16;5013102;28;45434;-81
2022/03/17 03:44:23;;;;;;;;;15.00;15.00;;;;;-146.03;100.00;60875.16;5013707;28;45349;-81
2022/03/17 03:46:49;;;;;;;;;17.50;16.75;;;;;-146.03;100.00;60875.16;5013541;28;45570;-81
2022/03/17 03:49:14;;;;;;;;;20.25;15.75;;;;;-146.03;100.00;60875.16;4991922;28;45563;-81
2022/03/17 03:51:39;;;;;;;;;22.75;20.75;;;;;-146.03;100.00;60875.16;4995456;28;47048;-81
2022/03/17 03:54:15;;;;;;;;;16.75;16.75;;;;;-146.03;100.00;60875.16;5012839;28;45423;-80
2022/03/17 03:56:55;;;;;;;;;14.00;14.00;;;;;-146.03;100.00;60875.16;5013416;28;45438;-81
2022/03/17 03:59:23;;;;;;;;;16.25;15.25;;;;;-146.03;100.00;60875.16;5010462;28;45735;-80
2022/03/17 04:01:51;;;;;;;;;15.50;15.00;;;;;-146.03;100.00;60875.16;5010710;28;47523;-81
2022/03/17 04:04:20;;;;;;;;;15.75;15.75;;;;;-146.03;100.00;60875.16;5012711;28;45664;-81
2022/03/17 04:06:48;;;;;;;;;17.00;15.00;;;;;-146.03;100.00;60875.16;5012840;28;45462;-81
2022/03/17 04:09:15;;;;;;;;;14.25;14.25;;;;;-146.03;100.00;60875.16;5012845;28;45489;-81
2022/03/17 04:11:44;;;;;;;;;17.25;15.00;;;;;-146.03;100.00;60875.16;5006956;28;48662;-81
2022/03/17 04:14:10;;;;;;;;;14.75;11.75;;;;;-146.03;100.00;60875.16;5013914;28;45470;-81
2022/03/17 04:16:37;;;;;;;;;15.75;14.50;;;;;-146.03;100.00;60875.16;5013026;28;45462;-81
2022/03/17 04:19:03;;;;;;;;;12.25;12.25;;;;;-146.03;100.00;60875.16;5012852;28;45772;-81
2022/03/17 04:21:29;;;;;;;;;13.25;12.50;;;;;-146.03;100.00;60875.16;5005922;28;45562;-81
2022/03/17 04:23:54;;;;;;;;;14.00;13.00;;;;;-146.03;100.00;60875.16;4994882;28;45428;-81
2022/03/17 04:26:20;;;;;;;;;15.50;12.50;;;;;-146.03;100.00;60875.16;5013844;28;45353;-81
2022/03/17 04:28:45;;;;;;;;;13.25;12.50;;;;;-146.03;100.00;60875.16;5013722;28;45335;-81
2022/03/17 04:31:11;;;;;;;;;13.25;12.25;;;;;-146.03;100.00;60875.16;5012969;28;46553;-81
2022/03/17 04:33:36;;;;;;;;;11.75;11.00;;;;;-146.03;100.00;60875.16;5013328;28;45496;-81
2022/03/17 04:36:03;;;;;;;;;9.75;9.25;;;;;-146.03;100.00;60875.16;4996049;28;45514;-81
2022/03/17 04:38:28;;;;;;;;;8.50;8.00;;;;;-146.03;100.00;60875.16;5013884;28;45304;-81
2022/03/17 04:40:54;;;;;;;;;5.25;5.25;;;;;-146.03;100.00;60875.16;5014074;28;49811;-81
2022/03/17 04:43:19;;;;;;;;;7.25;7.25;;;;;-146.03;100.00;60875.16;5013598;28;45431;-80
2022/03/17 04:45:46;;;;;;;;;9.25;8.00;;;;;-146.03;100.00;60875.16;5013631;28;45683;-80
2022/03/17 04:48:12;;;;;;;;;4.75;4.75;;;;;-146.03;100.00;60875.16;5016586;28;45482;-80
2022/03/17 04:50:38;;;;;;;;;5.00;5.00;;;;;-146.03;100.00;60875.16;5017281;28;45438;-79
2022/03/17 04:55:47;;;;;;;;;6.25;5.75;;;;;-146.03;100.00;60875.16;5017578;28;45580;-80
2022/03/17 04:58:13;;;;;;;;;12.50;8.25;;;;;-146.03;100.00;60875.16;5017079;28;45468;-81
2022/03/17 05:00:39;;;;;;;;;6.00;6.00;;;;;-146.03;100.00;60875.16;5016919;28;46141;-82
2022/03/17 05:03:04;;;;;;;;;7.00;7.00;;;;;-146.03;100.00;60875.16;5017152;28;45431;-82
2022/03/17 05:05:30;;;;;;;;;9.50;6.25;;;;;-146.03;100.00;60875.16;5017372;28;45240;-83
2022/03/17 05:07:57;;;;;;;;;9.00;8.25;;;;;-146.03;100.00;60875.16;5017333;28;45518;-82
2022/03/17 05:10:23;;;;;;;;;7.00;6.50;;;;;-146.03;100.00;60875.16;5016605;28;46176;-82
2022/03/17 05:12:49;;;;;;;;;7.50;7.25;;;;;-146.03;100.00;60875.16;5016953;28;45718;-83
2022/03/17 05:15:14;;;;;;;;;7.75;7.00;;;;;-146.03;100.00;60875.16;5017145;28;45581;-81
2022/03/17 05:17:40;;;;;;;;;7.00;7.00;;;;;-146.03;100.00;60875.16;4999180;28;45611;-81
2022/03/17 05:20:09;;;;;;;;;9.00;9.00;;;;;-146.03;100.00;60875.16;5017266;28;45532;-81
2022/03/17 05:22:34;;;;;;;;;7.25;7.25;;;;;-146.03;100.00;60875.16;5016287;28;45421;-82
2022/03/17 05:25:00;;;;;;;;;7.00;7.00;;;;;-146.03;100.00;60875.16;5016802;28;45451;-82
2022/03/17 05:27:25;;;;;;;;;6.25;6.25;;;;;-146.03;100.00;60875.16;5016802;28;45432;-81
2022/03/17 05:29:51;;;;;;;;;9.75;5.50;;;;;-146.03;100.00;60875.16;5016613;28;45406;-81
2022/03/17 05:32:16;;;;;;;;;5.25;5.25;;;;;-146.03;100.00;60875.16;5017161;28;45296;-81
2022/03/17 05:34:41;;;;;;;;;11.50;10.50;;;;;-146.03;100.00;60875.16;5015198;28;45460;-81
2022/03/17 05:37:07;;;;;;;;;11.25;9.75;;;;;-146.03;100.00;60875.16;5015871;28;50555;-81
2022/03/17 05:39:32;;;;;;;;;13.50;10.00;;;;;-146.03;100.00;60875.16;5016184;28;46889;-81
2022/03/17 05:41:57;;;;;;;;;11.50;10.25;;;;;-146.03;100.00;60875.16;5016373;28;45470;-81
2022/03/17 05:44:23;;;;;;;;;6.75;6.25;;;;;-146.03;100.00;60875.16;4998796;28;45490;-81
2022/03/17 05:46:48;;;;;;;;;10.00;7.25;;;;;-146.03;100.00;60875.16;5016541;28;45369;-80
2022/03/17 05:49:13;;;;;;;;;8.25;8.25;;;;;-146.03;100.00;60875.16;5016159;28;45504;-81
2022/03/17 05:51:39;;;;;;;;;8.25;6.75;;;;;-146.03;100.00;60875.16;5015850;28;45350;-81
2022/03/17 05:54:06;;;;;;;;;9.75;9.25;;;;;-146.03;100.00;60875.16;5016275;28;45248;-80
2022/03/17 05:56:31;;;;;;;;;8.00;8.00;;;;;-146.03;100.00;60875.16;5016234;28;45435;-81
2022/03/17 05:58:56;;;;;;;;;13.50;9.75;;;;;-146.03;100.00;60875.16;5015876;28;45480;-81
2022/03/17 06:01:22;;;;;;;;;10.25;9.00;;;;;-146.03;100.00;60875.16;5015755;28;45496;-81
2022/03/17 06:03:47;;;;;;;;;7.00;7.00;;;;;-146.03;100.00;60875.16;5014977;28;45320;-80
2022/03/17 06:06:12;;;;;;;;;9.75;7.50;;;;;-146.03;100.00;60875.16;4996167;28;45567;-80
2022/03/17 06:08:37;;;;;;;;;11.25;11.00;;;;;-146.03;100.00;60875.16;5015121;28;45392;-80
2022/03/17 06:11:04;;;;;;;;;11.25;7.25;;;;;-146.03;100.00;60875.16;5015677;28;45423;-81
2022/03/17 06:13:30;;;;;;;;;9.50;9.50;;;;;-146.03;100.00;60875.16;5015148;28;45578;-81
2022/03/17 06:15:55;;;;;;;;;10.50;10.25;;;;;-146.03;100.00;60875.16;5015384;28;45477;-79
2022/03/17 06:18:20;;;;;;;;;8.50;8.50;;;;;-146.03;100.00;60875.16;4993274;28;47121;-79
2022/03/17 06:20:46;;;;;;;;;10.50;10.00;;;;;-146.03;100.00;60875.16;5014813;28;49970;-79
2022/03/17 06:23:11;;;;;;;;;10.75;9.00;;;;;-146.03;100.00;60875.16;5015695;28;45296;-79
2022/03/17 06:25:37;;;;;;;;;7.50;7.50;;;;;-146.03;100.00;60875.16;5014157;28;45335;-79
2022/03/17 06:28:07;;;;;;;;;9.25;9.25;;;;;-146.03;100.00;60875.16;4994768;28;47093;-79
2022/03/17 06:30:36;;;;;;;;;7.50;6.00;;;;;-146.03;100.00;60875.16;5014524;28;45350;-79
2022/03/17 06:33:03;;;;;;;;;9.50;9.25;;;;;-146.03;100.00;60875.16;5014455;28;45414;-79
2022/03/17 06:35:29;;;;;;;;;5.50;5.50;;;;;-146.03;100.00;60875.16;4997182;28;45328;-79
2022/03/17 06:37:57;;;;;;;;;9.75;8.75;;;;;-146.03;100.00;60875.16;5014604;28;46002;-79
2022/03/17 06:40:24;;;;;;;;;9.00;7.00;;;;;-146.03;100.00;60875.16;5013111;28;45551;-80
2022/03/17 06:42:50;;;;;;;;;8.75;5.75;;;;;-146.03;100.00;60875.16;5014500;28;45419;-80
2022/03/17 06:45:16;;;;;;;;;7.50;6.75;;;;;-146.03;100.00;60875.16;5014628;28;45460;-79
2022/03/17 06:47:42;;;;;;;;;10.75;7.25;;;;;-146.03;100.00;60875.16;5013876;28;45975;-80
2022/03/17 06:50:09;;;;;;;;;10.50;9.00;;;;;-146.03;100.00;60875.16;4996784;28;45410;-80
2022/03/17 06:52:35;;;;;;;;;7.25;5.75;;;;;-146.03;100.00;60875.16;5013576;28;45529;-81
2022/03/17 06:55:00;;;;;;;;;9.25;8.25;;;;;-146.03;100.00;60875.16;5014168;28;45525;-81
2022/03/17 06:57:26;;;;;;;;;8.00;5.75;;;;;-146.03;100.00;60875.16;5013943;28;45501;-82
2022/03/17 06:59:52;;;;;;;;;5.50;5.50;;;;;-146.03;100.00;60875.16;5014368;28;45549;-81
2022/03/17 07:02:18;;;;;;;;;6.00;5.75;;;;;-146.03;100.00;60875.16;4995696;28;45509;-81
2022/03/17 07:04:44;;;;;;;;;5.75;4.75;;;;;-146.03;100.00;60875.16;5014679;28;45489;-81
2022/03/17 07:07:10;;;;;;;;;5.25;5.25;;;;;-146.03;100.00;60875.16;4996372;28;47174;-81
2022/03/17 07:09:36;;;;;;;;;5.50;5.50;;;;;-146.03;100.00;60875.16;5013366;28;45965;-81
2022/03/17 07:12:03;;;;;;;;;6.00;6.00;;;;;-146.03;100.00;60875.16;5014126;28;45471;-80
2022/03/17 07:14:29;;;;;;;;;4.25;4.25;;;;;-146.03;100.00;60875.16;5014392;28;45530;-80
2022/03/17 07:16:55;;;;;;;;;6.75;6.00;;;;;-146.03;100.00;60875.16;5014165;28;45929;-80
2022/03/17 07:19:20;;;;;;;;;6.25;4.75;;;;;-146.03;100.00;60875.16;5013913;28;45505;-81
2022/03/17 07:21:45;;;;;;;;;9.00;6.00;;;;;-146.03;100.00;60875.16;5014752;28;45617;-80
2022/03/17 07:24:11;;;;;;;;;5.00;5.00;;;;;-146.03;100.00;60875.16;5014644;28;45283;-81
2022/03/17 07:26:36;;;;;;;;;5.25;5.25;;;;;-146.03;100.00;60875.16;5014710;28;47256;-81
2022/03/17 07:29:03;;;;;;;;;4.50;3.50;;;;;-146.03;100.00;60875.16;5012233;28;46050;-80
2022/03/17 07:31:29;;;;;;;;;4.50;4.50;;;;;-146.03;100.00;60875.16;5013520;28;45440;-80
2022/03/17 07:33:54;;;;;;;;;7.25;6.50;;;;;-146.03;100.00;60875.16;5013153;28;45462;-81
2022/03/17 07:36:20;;;;;;;;;5.50;5.50;;;;;-146.03;100.00;60875.16;5012741;28;45525;-81
2022/03/17 07:38:46;;;;;;;;;6.75;5.00;;;;;-146.03;100.00;60875.16;5013831;28;45446;-81
2022/03/17 07:41:13;;;;;;;;;7.00;5.50;;;;;-146.03;100.00;60875.16;5014047;28;45346;-81
2022/03/17 07:43:40;;;;;;;;;10.00;6.25;;;;;-146.03;100.00;60875.16;5013880;28;45635;-81
2022/03/17 07:46:06;;;;;;;;;6.75;5.00;;;;;-146.03;100.00;60875.16;5012077;28;46363;-80
2022/03/17 07:48:31;;;;;;;;;6.00;5.00;;;;;-146.03;100.00;60875.16;5012737;28;45505;-81
2022/03/17 07:50:57;;;;;;;;;6.25;5.00;;;;;-146.03;100.00;60875.16;5013430;28;45422;-80
2022/03/17 07:53:22;;;;;;;;;5.00;5.00;;;;;-146.03;100.00;60875.16;5013413;28;45527;-81
2022/03/17 07:55:47;;;;;;;;;6.25;5.25;;;;;-146.03;100.00;60875.16;5014255;28;45410;-80
2022/03/17 07:58:13;;;;;;;;;6.00;6.00;;;;;-146.03;100.00;60875.16;5013594;28;45382;-81
2022/03/17 08:00:41;;;;;;;;;6.25;5.25;;;;;-146.03;100.00;60875.16;5014298;28;45607;-81
2022/03/17 08:03:07;;;;;;;;;8.75;8.25;;;;;-146.03;100.00;60875.16;4994904;28;45587;-81
2022/03/17 08:05:32;;;;;;;;;9.00;6.25;;;;;-146.03;100.00;60875.16;5012743;28;45544;-80
2022/03/17 08:08:00;;;;;;;;;9.75;7.00;;;;;-146.03;100.00;60875.16;5014308;28;45458;-79
2022/03/17 08:10:28;;;;;;;;;7.50;7.50;;;;;-146.03;100.00;60875.16;4994279;28;45605;-79
2022/03/17 08:12:53;;;;;;;;;7.25;7.25;;;;;-146.03;100.00;60875.16;5013734;28;45435;-80
2022/03/17 08:15:19;;;;;;;;;6.00;5.50;;;;;-146.03;100.00;60875.16;5012968;28;45462;-80
2022/03/17 08:17:44;;;;;;;;;4.50;4.50;;;;;-146.03;100.00;60875.16;5014062;28;45395;-80
2022/03/17 08:20:10;;;;;;;;;10.25;7.50;;;;;-146.03;100.00;60875.16;5013860;28;45484;-81
2022/03/17 08:22:35;;;;;;;;;11.00;8.75;;;;;-146.03;100.00;60875.16;5015453;28;45320;-81
2022/03/17 08:25:00;;;;;;;;;5.00;5.00;;;;;-146.03;100.00;60875.16;5017393;28;46050;-80
2022/03/17 08:27:26;;;;;;;;;7.75;7.75;;;;;-146.03;100.00;60875.16;5017237;28;45190;-80
2022/03/17 08:29:51;;;;;;;;;8.50;7.00;;;;;-146.03;100.00;60875.16;4997423;28;45774;-81
2022/03/17 08:32:17;;;;;;;;;5.00;5.00;;;;;-146.03;100.00;60875.16;5017440;28;45762;-80
2022/03/17 08:34:42;;;;;;;;;10.25;7.50;;;;;-146.03;100.00;60875.16;5016658;28;45586;-81
2022/03/17 08:37:09;;;;;;;;;10.75;8.25;;;;;-146.03;100.00;60875.16;5015456;28;46811;-80
2022/03/17 08:39:34;;;;;;;;;6.00;5.75;;;;;-146.03;100.00;60875.16;5017213;28;47049;-80
2022/03/17 08:42:00;;;;;;;;;11.25;10.00;;;;;-146.03;100.00;60875.16;5017120;28;45540;-80
2022/03/17 08:44:25;;;;;;;;;13.00;9.50;;;;;-146.03;100.00;60875.16;4999117;28;48221;-81
2022/03/17 08:49:34;;;;;;;;;6.75;5.50;;;;;-146.03;100.00;60875.16;5014482;28;45452;-82
2022/03/17 08:52:01;;;;;;;;;7.50;7.50;;;;;-146.03;100.00;60875.16;5014272;28;45530;-81
2022/03/17 08:54:28;;;;;;;;;10.50;9.00;;;;;-146.03;100.00;60875.16;5016247;28;45927;-82
2022/03/17 08:56:59;;;;;;;;;6.75;5.00;;;;;-146.03;100.00;60875.16;5016610;28;45494;-82
2022/03/17 08:59:31;;;;;;;;;8.50;7.00;;;;;-146.03;100.00;60875.16;4998435;28;45328;-82
2022/03/17 09:02:06;;;;;;;;;10.25;7.75;;;;;-146.03;100.00;60875.16;5016758;28;45439;-81
2022/03/17 09:04:32;;;;;;;;;8.00;7.00;;;;;-146.03;100.00;60875.16;5016125;28;45497;-82
2022/03/17 09:06:59;;;;;;;;;11.00;9.00;;;;;-146.03;100.00;60875.16;5016352;28;45522;-82
2022/03/17 09:09:34;;;;;;;;;8.50;8.50;;;;;-146.03;100.00;60875.16;5016533;28;45374;-82
2022/03/17 09:12:04;;;;;;;;;13.00;6.50;;;;;-146.03;100.00;60875.16;5015962;28;47800;-81
2022/03/17 09:14:30;;;;;;;;;10.00;9.25;;;;;-146.03;100.00;60875.16;5015952;28;46175;-81
2022/03/17 09:16:55;;;;;;;;;13.00;8.25;;;;;-146.03;100.00;60875.16;4996959;28;45353;-82
2022/03/17 09:19:21;;;;;;;;;10.75;8.25;;;;;-146.03;100.00;60875.16;5015819;28;45395;-82
2022/03/17 09:21:47;;;;;;;;;11.75;9.00;;;;;-146.03;100.00;60875.16;5016233;28;45355;-81
2022/03/17 09:24:12;;;;;;;;;8.25;8.25;;;;;-146.03;100.00;60875.16;5015779;28;45818;-81
2022/03/17 09:26:37;;;;;;;;;9.50;5.75;;;;;-146.03;100.00;60875.16;5016390;28;45331;-81
2022/03/17 09:29:04;;;;;;;;;9.75;7.00;;;;;-146.03;100.00;60875.16;5016530;28;45718;-81
2022/03/17 09:31:29;;;;;;;;;9.00;7.75;;;;;-146.03;100.00;60875.16;5015866;28;45527;-81
2022/03/17 09:33:56;;;;;;;;;11.00;10.00;;;;;-146.03;100.00;60875.16;5015104;28;45669;-81
2022/03/17 09:36:21;;;;;;;;;9.25;8.50;;;;;-146.03;100.00;60875.16;5016170;28;45793;-81
2022/03/17 09:41:33;;;;;;;;;9.00;7.50;;;;;-146.03;100.00;60875.16;5029200;28;45400;-81
2022/03/17 09:43:59;;;;;;;;;10.00;10.00;;;;;-146.03;100.00;60875.16;5013711;28;45420;-81
2022/03/17 09:46:27;;;;;;;;;12.00;8.25;;;;;-146.03;100.00;60875.16;5015671;28;45462;-82
2022/03/17 09:48:55;;;;;;;;;12.25;11.00;;;;;-146.03;100.00;60875.16;5015539;28;45762;-81
2022/03/17 09:51:23;;;;;;;;;13.50;12.75;;;;;-146.03;100.00;60875.16;5015700;28;45468;-81
2022/03/17 09:53:49;;;;;;;;;18.25;14.00;;;;;-146.03;100.00;60875.16;5015575;28;46025;-81
2022/03/17 09:56:14;;;;;;;;;10.50;10.50;;;;;-146.03;100.00;60875.16;5015513;28;45569;-81
2022/03/17 09:58:40;;;;;;;;;9.50;8.00;;;;;-146.03;100.00;60875.16;5022516;28;45559;-80
2022/03/17 10:01:08;;;;;;;;;11.25;11.25;;;;;-146.03;100.00;60875.16;5016892;28;45565;-80
2022/03/17 10:03:34;;;;;;;;;11.50;10.25;;;;;-146.03;100.00;60875.16;5014988;28;45421;-80
2022/03/17 10:06:05;;;;;;;;;9.75;9.75;;;;;-146.03;100.00;60875.16;5016705;28;46621;-80
2022/03/17 10:08:31;;;;;;;;;13.00;11.75;;;;;-146.03;100.00;60875.16;5017713;28;45686;-80
2022/03/17 10:10:56;;;;;;;;;9.75;9.75;;;;;-146.03;100.00;60875.16;5014794;28;45520;-80
2022/03/17 10:13:25;;;;;;;;;13.00;13.00;;;;;-146.03;100.00;60875.16;5014916;28;50109;-80
2022/03/17 10:16:09;;;;;;;;;7.75;7.75;;;;;-146.03;100.00;60875.16;5015563;28;45560;-81
2022/03/17 10:18:38;;;;;;;;;9.75;9.75;;;;;-146.03;100.00;60875.16;4996361;28;47939;-81
2022/03/17 10:21:07;;;;;;;;;12.25;8.50;;;;;-146.03;100.00;60875.16;5015494;28;46223;-82
2022/03/17 10:23:42;;;;;;;;;12.25;7.00;;;;;-146.03;100.00;60875.16;5014874;28;46082;-82
2022/03/17 10:26:07;;;;;;;;;10.75;10.75;;;;;-146.03;100.00;60875.16;5014942;28;45615;-84
2022/03/17 10:28:32;;;;;;;;;14.00;11.00;;;;;-146.03;100.00;60875.16;5015720;28;45529;-83
2022/03/17 10:31:11;;;;;;;;;12.75;9.50;;;;;-146.03;100.00;60875.16;5013990;28;53345;-83
2022/03/17 10:33:37;;;;;;;;;12.25;9.00;;;;;-146.03;100.00;60875.16;5013858;28;46233;-83
2022/03/17 10:36:21;;;;;;;;;7.00;7.00;;;;;-146.03;100.00;60875.16;5014777;28;45483;-83
2022/03/17 10:38:47;;;;;;;;;11.50;8.25;;;;;-146.03;100.00;60875.16;5014415;28;45380;-83
2022/03/17 10:41:13;;;;;;;;;8.50;8.50;;;;;-146.03;100.00;60875.16;5016366;28;45340;-84
2022/03/17 10:43:43;;;;;;;;;9.25;9.25;;;;;-146.03;100.00;60875.16;5015490;28;45478;-83
2022/03/17 10:46:15;;;;;;;;;10.25;10.25;;;;;-146.03;100.00;60875.16;5014598;28;45762;-84
2022/03/17 10:49:03;;;;;;;;;14.50;11.75;;;;;-146.03;100.00;60875.16;5016999;28;45386;-83
2022/03/17 10:51:32;;;;;;;;;11.25;11.25;;;;;-146.03;100.00;60875.16;5024916;28;45343;-83
2022/03/17 10:54:04;;;;;;;;;7.25;7.25;;;;;-146.03;100.00;60875.16;5014646;28;46526;-83
2022/03/17 10:56:30;;;;;;;;;7.50;6.50;;;;;-146.03;100.00;60875.16;4996643;28;45576;-83
2022/03/17 10:58:56;;;;;;;;;11.75;11.25;;;;;-146.03;100.00;60875.16;5013932;28;45474;-83
2022/03/17 11:01:39;;;;;;;;;11.00;9.25;;;;;-146.03;100.00;60875.16;5012155;28;45891;-83
2022/03/17 11:04:05;;;;;;;;;11.75;8.00;;;;;-146.03;100.00;60875.16;5014380;28;46324;-82
2022/03/17 11:06:32;;;;;;;;;12.50;12.00;;;;;-146.03;100.00;60875.16;5014514;28;45450;-83
2022/03/17 11:09:01;;;;;;;;;12.00;10.00;;;;;-146.03;100.00;60875.16;5014259;28;45511;-83
2022/03/17 11:11:29;;;;;;;;;10.50;8.75;;;;;-146.03;100.00;60875.16;5013999;28;45498;-83
2022/03/17 11:13:57;;;;;;;;;12.00;11.25;;;;;-146.03;100.00;60875.16;5011587;28;45453;-83
2022/03/17 11:16:29;;;;;;;;;11.75;11.50;;;;;-146.03;100.00;60875.16;5010239;28;45532;-83